createdAt,value
2023-09-03T00:03:19.423Z,1.40
2023-09-03T00:08:24.757Z,1.60
2023-09-03T00:13:28.191Z,1.50
2023-09-03T00:18:31.548Z,1.30
2023-09-03T00:23:36.222Z,1.30
2023-09-03T00:28:39.507Z,1.50
2023-09-03T00:33:42.679Z,1.40
2023-09-03T00:38:50.535Z,1.50
2023-09-03T00:43:53.789Z,1.10
2023-09-03T00:48:57.154Z,1.30
2023-09-03T00:54:03.545Z,1.53
2023-09-03T00:59:07.681Z,1.50
2023-09-03T01:04:11.279Z,1.40
2023-09-03T01:09:16.120Z,1.27
2023-09-03T01:14:26.895Z,1.33
2023-09-03T01:19:55.200Z,0.90
2023-09-03T01:25:13.233Z,1.40
2023-09-03T01:30:18.525Z,1.30
2023-09-03T01:35:21.843Z,1.40
2023-09-03T01:40:25.295Z,1.10
2023-09-03T01:45:36.801Z,1.13
2023-09-03T01:50:44.576Z,0.90
2023-09-03T01:55:53.657Z,1.00
2023-09-03T02:00:58.678Z,0.97
2023-09-03T02:06:02.279Z,0.97
2023-09-03T02:11:05.552Z,1.10
2023-09-03T02:16:10.685Z,0.93
2023-09-03T02:21:14.186Z,1.40
2023-09-03T02:26:17.514Z,1.30
2023-09-03T02:31:22.146Z,1.17
2023-09-03T02:36:25.422Z,1.20
2023-09-03T02:41:28.910Z,0.97
2023-09-03T02:46:33.479Z,1.23
2023-09-03T02:51:36.789Z,1.40
2023-09-03T02:56:40.026Z,1.17
2023-09-03T03:01:44.763Z,1.10
2023-09-03T03:06:48.145Z,1.00
2023-09-03T03:11:51.425Z,1.10
2023-09-03T03:16:56.762Z,0.90
2023-09-03T03:22:00.269Z,1.20
2023-09-03T03:27:03.686Z,1.20
2023-09-03T03:32:09.089Z,1.47
2023-09-03T03:37:15.869Z,1.20
2023-09-03T03:42:19.466Z,1.10
2023-09-03T03:47:24.132Z,1.33
2023-09-03T03:52:27.390Z,1.30
2023-09-03T03:57:30.513Z,1.10
2023-09-03T04:02:35.094Z,1.40
2023-09-03T04:07:38.708Z,1.40
2023-09-03T04:12:42.083Z,1.00
2023-09-03T04:17:48.601Z,1.20
2023-09-03T04:22:57.178Z,1.63
2023-09-03T04:28:01.174Z,1.57
2023-09-03T04:33:07.484Z,1.40
2023-09-03T04:38:14.968Z,1.00
2023-09-03T04:43:20.494Z,1.17
2023-09-03T04:48:25.603Z,1.00
2023-09-03T04:53:29.857Z,1.10
2023-09-03T04:58:33.304Z,1.10
2023-09-03T05:03:38.628Z,1.10
2023-09-03T05:08:42.193Z,1.57
2023-09-03T05:13:45.480Z,1.10
2023-09-03T05:18:51.569Z,1.20
2023-09-03T05:23:56.216Z,1.17
2023-09-03T05:28:59.359Z,1.10
2023-09-03T05:34:04.085Z,1.20
2023-09-03T05:39:07.662Z,1.30
2023-09-03T05:44:11.305Z,1.43
2023-09-03T05:49:18.325Z,1.00
2023-09-03T05:54:21.882Z,1.40
2023-09-03T05:59:25.236Z,1.70
2023-09-03T06:04:29.870Z,1.57
2023-09-03T06:09:33.245Z,1.70
2023-09-03T06:14:38.865Z,1.70
2023-09-03T06:19:49.582Z,2.07
2023-09-03T06:24:53.181Z,2.00
2023-09-03T06:29:56.307Z,1.83
2023-09-03T06:35:01.433Z,2.10
2023-09-03T06:40:05.077Z,2.23
2023-09-03T06:45:09.752Z,3.10
2023-09-03T06:50:14.532Z,3.30
2023-09-03T06:55:19.328Z,6.17
2023-09-03T07:00:22.991Z,11.80
2023-09-03T07:05:27.623Z,13.53
2023-09-03T07:10:30.884Z,12.00
2023-09-03T07:15:34.657Z,13.10
2023-09-03T07:20:39.372Z,13.60
2023-09-03T07:25:42.898Z,12.63
2023-09-03T07:30:46.217Z,14.00
2023-09-03T07:35:51.171Z,14.90
2023-09-03T07:40:54.420Z,12.57
2023-09-03T07:45:57.685Z,14.80
2023-09-03T07:51:02.341Z,13.50
2023-09-03T07:56:06.022Z,13.13
2023-09-03T08:01:11.984Z,12.40
2023-09-03T08:06:16.708Z,13.10
2023-09-03T08:11:20.232Z,13.23
2023-09-03T08:16:23.569Z,12.53
2023-09-03T08:21:28.438Z,12.53
2023-09-03T08:26:31.850Z,12.77
2023-09-03T08:31:35.392Z,13.17
2023-09-03T08:36:40.043Z,12.07
2023-09-03T08:41:43.496Z,11.30
2023-09-03T08:46:48.782Z,12.50
2023-09-03T08:51:53.640Z,11.60
2023-09-03T08:56:58.290Z,10.63
2023-09-03T09:02:02.317Z,12.63
2023-09-03T09:07:07.261Z,12.47
2023-09-03T09:12:15.088Z,12.50
2023-09-03T09:17:18.593Z,12.50
2023-09-03T09:22:25.468Z,11.30
2023-09-03T09:27:29.965Z,9.70
2023-09-03T09:32:33.358Z,8.60
2023-09-03T09:37:41.735Z,8.93
2023-09-03T09:42:54.271Z,10.20
2023-09-03T09:48:07.770Z,11.60
2023-09-03T09:53:24.293Z,10.00
2023-09-03T09:58:37.492Z,9.80
2023-09-03T10:03:43.824Z,9.63
2023-09-03T10:08:51.949Z,7.53
2023-09-03T10:13:57.668Z,7.13
2023-09-03T10:19:04.084Z,7.50
2023-09-03T10:24:09.995Z,6.80
2023-09-03T10:29:15.048Z,6.40
2023-09-03T10:34:18.424Z,6.07
2023-09-03T10:39:27.197Z,6.47
2023-09-03T10:44:34.682Z,4.80
2023-09-03T10:49:45.130Z,3.97
2023-09-03T10:55:17.079Z,3.80
2023-09-03T11:00:25.594Z,4.93
2023-09-03T11:05:29.624Z,4.43
2023-09-03T11:10:46.428Z,3.57
2023-09-03T11:15:52.841Z,3.07
2023-09-03T11:20:57.209Z,3.43
2023-09-03T11:26:03.862Z,3.53
2023-09-03T11:31:07.679Z,3.73
2023-09-03T11:36:11.034Z,3.70
2023-09-03T11:41:18.199Z,3.20
2023-09-03T11:46:21.666Z,2.80
2023-09-03T11:51:29.506Z,2.70
2023-09-03T11:56:34.681Z,2.87
2023-09-03T12:01:38.050Z,2.60
2023-09-03T12:06:41.410Z,3.13
2023-09-03T12:11:46.218Z,3.20
2023-09-03T12:16:49.841Z,2.53
2023-09-03T12:21:53.578Z,2.87
2023-09-03T12:27:04.778Z,2.33
2023-09-03T12:32:09.332Z,2.60
2023-09-03T12:37:12.580Z,2.33
2023-09-03T12:42:18.694Z,2.70
2023-09-03T12:47:22.634Z,2.53
2023-09-03T12:52:25.984Z,2.57
2023-09-03T12:57:30.891Z,2.57
2023-09-03T13:02:35.229Z,2.40
2023-09-03T13:07:38.642Z,2.40
2023-09-03T13:12:43.386Z,2.10
2023-09-03T13:17:49.701Z,2.00
2023-09-03T13:22:53.083Z,1.63
2023-09-03T13:27:57.936Z,2.23
2023-09-03T13:33:02.969Z,2.10
2023-09-03T13:38:06.494Z,2.17
2023-09-03T13:43:10.994Z,1.80
2023-09-03T13:48:14.364Z,1.90
2023-09-03T13:53:17.729Z,2.13
2023-09-03T13:58:22.630Z,1.90
2023-09-03T14:03:26.252Z,2.60
2023-09-03T14:08:29.475Z,2.20
2023-09-03T14:13:34.420Z,2.27
2023-09-03T14:18:37.944Z,2.40
2023-09-03T14:23:41.129Z,2.20
2023-09-03T14:28:45.815Z,2.43
2023-09-03T14:33:49.683Z,2.80
2023-09-03T14:38:53.345Z,2.23
2023-09-03T14:43:58.050Z,2.50
2023-09-03T14:49:01.484Z,2.17
2023-09-03T14:54:06.080Z,2.43
2023-09-03T14:59:10.806Z,2.10
2023-09-03T15:04:13.954Z,2.50
2023-09-03T15:09:17.954Z,2.30
2023-09-03T15:14:22.691Z,2.53
2023-09-03T15:19:25.997Z,2.43
2023-09-03T15:24:30.766Z,1.90
2023-09-03T15:29:37.034Z,2.23
2023-09-03T15:34:40.169Z,2.37
2023-09-03T15:39:43.289Z,2.50
2023-09-03T15:44:47.784Z,2.00
2023-09-03T15:49:50.936Z,1.93
2023-09-03T15:54:54.219Z,1.80
2023-09-03T15:59:58.772Z,1.47
2023-09-03T16:05:01.939Z,1.83
2023-09-03T16:10:05.818Z,1.63
2023-09-03T16:15:12.200Z,1.67
2023-09-03T16:20:15.749Z,1.70
2023-09-03T16:25:18.972Z,1.60
2023-09-03T16:30:23.600Z,1.67
2023-09-03T16:35:27.720Z,1.57
2023-09-03T16:40:31.943Z,1.20
2023-09-03T16:45:36.612Z,1.60
2023-09-03T16:50:40.908Z,1.50
2023-09-03T16:55:44.128Z,1.50
2023-09-03T17:00:48.697Z,1.50
2023-09-03T17:05:51.878Z,1.60
2023-09-03T17:10:55.153Z,1.47
2023-09-03T17:15:59.856Z,1.27
2023-09-03T17:21:03.998Z,1.77
2023-09-03T17:26:23.348Z,1.50
2023-09-03T17:31:31.363Z,1.90
2023-09-03T17:36:35.437Z,1.30
2023-09-03T17:41:38.744Z,1.73
2023-09-03T17:46:44.644Z,1.10
2023-09-03T17:51:48.673Z,1.90
2023-09-03T17:56:51.877Z,1.43
2023-09-03T18:01:56.565Z,1.73
2023-09-03T18:06:59.986Z,4.90
2023-09-03T18:12:05.587Z,1.80
2023-09-03T18:17:10.220Z,1.10
2023-09-03T18:22:13.489Z,14.27
2023-09-03T18:27:16.996Z,2.10
2023-09-03T18:32:21.746Z,2.10
2023-09-03T18:37:25.194Z,1.53
2023-09-03T18:42:28.760Z,1.80
2023-09-03T18:47:33.481Z,2.47
2023-09-03T18:52:36.826Z,1.53
2023-09-03T18:57:40.149Z,1.30
2023-09-03T19:02:45.142Z,1.50
2023-09-03T19:07:48.595Z,1.60
2023-09-03T19:12:54.357Z,1.43
2023-09-03T19:17:59.021Z,1.27
2023-09-03T19:23:04.901Z,1.80
2023-09-03T19:28:11.034Z,1.37
2023-09-03T19:33:19.103Z,1.77
2023-09-03T19:38:22.612Z,2.00
2023-09-03T19:43:26.243Z,6.10
2023-09-03T19:48:33.887Z,5.80
2023-09-03T19:53:37.454Z,5.30
2023-09-03T19:58:41.024Z,3.37
2023-09-03T20:03:46.440Z,2.60
2023-09-03T20:08:50.000Z,3.60
2023-09-03T20:13:55.923Z,2.53
2023-09-03T20:19:00.761Z,2.07
2023-09-03T20:24:04.694Z,2.13
2023-09-03T20:29:09.690Z,2.10
2023-09-03T20:34:14.588Z,1.77
2023-09-03T20:39:18.830Z,2.23
2023-09-03T20:44:22.993Z,1.60
2023-09-03T20:49:28.295Z,2.23
2023-09-03T20:54:34.409Z,2.00
2023-09-03T20:59:37.638Z,2.03
2023-09-03T21:04:42.167Z,2.20
2023-09-03T21:09:45.557Z,2.37
2023-09-03T21:14:48.767Z,1.83
2023-09-03T21:19:53.401Z,1.97
2023-09-03T21:24:56.680Z,1.53
2023-09-03T21:29:59.956Z,1.93
2023-09-03T21:35:17.935Z,1.93
2023-09-03T21:40:26.965Z,2.10
2023-09-03T21:45:30.521Z,2.03
2023-09-03T21:50:35.178Z,2.03
2023-09-03T21:55:38.658Z,2.00
2023-09-03T22:00:41.944Z,2.00
2023-09-03T22:05:47.246Z,2.00
2023-09-03T22:10:50.442Z,1.90
2023-09-03T22:15:53.752Z,1.93
2023-09-03T22:20:58.633Z,1.57
2023-09-03T22:26:02.360Z,2.03
2023-09-03T22:31:06.597Z,2.20
2023-09-03T22:36:11.201Z,1.90
2023-09-03T22:41:14.416Z,1.63
2023-09-03T22:46:17.605Z,2.20
2023-09-03T22:51:22.182Z,1.97
2023-09-03T22:56:25.537Z,1.87
2023-09-03T23:01:28.859Z,1.80
2023-09-03T23:06:33.754Z,1.80
2023-09-03T23:11:37.417Z,2.27
2023-09-03T23:16:40.910Z,1.80
2023-09-03T23:21:47.448Z,1.90
2023-09-03T23:26:50.627Z,2.40
2023-09-03T23:31:54.542Z,1.83
2023-09-03T23:36:59.113Z,1.70
2023-09-03T23:42:02.372Z,1.57
2023-09-03T23:47:13.265Z,2.10
2023-09-03T23:52:19.616Z,1.73
2023-09-03T23:57:22.972Z,2.27
